sensor_id;sensor_type;location;lat;lon;timestamp;P1;durP1;ratioP1;P2;durP2;ratioP2
68449;SDS011;67758;39.572;2.652;2023-03-01T00:01:03;17.48;;;3.08;;
68449;SDS011;67758;39.572;2.652;2023-03-01T00:03:29;14.82;;;2.55;;
68449;SDS011;67758;39.572;2.652;2023-03-01T00:05:55;11.03;;;3.10;;
68449;SDS011;67758;39.572;2.652;2023-03-01T00:08:21;14.95;;;3.90;;
68449;SDS011;67758;39.572;2.652;2023-03-01T00:10:59;17.25;;;3.70;;
68449;SDS011;67758;39.572;2.652;2023-03-01T00:13:31;13.13;;;2.60;;
68449;SDS011;67758;39.572;2.652;2023-03-01T00:16:03;14.07;;;2.85;;
68449;SDS011;67758;39.572;2.652;2023-03-01T00:18:29;13.23;;;3.00;;
68449;SDS011;67758;39.572;2.652;2023-03-01T00:20:55;13.68;;;2.78;;
68449;SDS011;67758;39.572;2.652;2023-03-01T00:23:21;18.70;;;2.87;;
68449;SDS011;67758;39.572;2.652;2023-03-01T00:25:48;12.98;;;2.28;;
68449;SDS011;67758;39.572;2.652;2023-03-01T00:28:15;15.40;;;3.25;;
68449;SDS011;67758;39.572;2.652;2023-03-01T00:30:41;14.15;;;3.13;;
68449;SDS011;67758;39.572;2.652;2023-03-01T00:33:07;17.50;;;3.70;;
68449;SDS011;67758;39.572;2.652;2023-03-01T00:35:34;13.17;;;2.90;;
68449;SDS011;67758;39.572;2.652;2023-03-01T00:38:00;16.65;;;3.72;;
68449;SDS011;67758;39.572;2.652;2023-03-01T00:40:27;14.35;;;3.50;;
68449;SDS011;67758;39.572;2.652;2023-03-01T00:42:53;15.00;;;3.55;;
68449;SDS011;67758;39.572;2.652;2023-03-01T00:45:19;12.32;;;3.47;;
68449;SDS011;67758;39.572;2.652;2023-03-01T00:47:45;13.37;;;3.30;;
68449;SDS011;67758;39.572;2.652;2023-03-01T00:50:12;19.15;;;3.65;;
68449;SDS011;67758;39.572;2.652;2023-03-01T00:52:38;15.88;;;3.45;;
68449;SDS011;67758;39.572;2.652;2023-03-01T00:55:04;14.57;;;2.83;;
68449;SDS011;67758;39.572;2.652;2023-03-01T00:57:30;16.90;;;3.40;;
68449;SDS011;67758;39.572;2.652;2023-03-01T00:59:56;13.70;;;2.28;;
68449;SDS011;67758;39.572;2.652;2023-03-01T01:02:22;15.60;;;2.60;;
68449;SDS011;67758;39.572;2.652;2023-03-01T01:04:48;15.13;;;2.38;;
68449;SDS011;67758;39.572;2.652;2023-03-01T01:07:14;16.05;;;2.70;;
68449;SDS011;67758;39.572;2.652;2023-03-01T01:09:40;14.68;;;2.03;;
68449;SDS011;67758;39.572;2.652;2023-03-01T01:12:06;7.73;;;1.77;;
68449;SDS011;67758;39.572;2.652;2023-03-01T01:14:32;12.15;;;2.05;;
68449;SDS011;67758;39.572;2.652;2023-03-01T01:16:58;10.93;;;1.80;;
68449;SDS011;67758;39.572;2.652;2023-03-01T01:19:24;12.37;;;2.00;;
68449;SDS011;67758;39.572;2.652;2023-03-01T01:21:51;10.35;;;1.90;;
68449;SDS011;67758;39.572;2.652;2023-03-01T01:24:22;11.63;;;1.85;;
68449;SDS011;67758;39.572;2.652;2023-03-01T01:26:48;15.80;;;1.67;;
68449;SDS011;67758;39.572;2.652;2023-03-01T01:29:14;10.65;;;1.35;;
68449;SDS011;67758;39.572;2.652;2023-03-01T01:31:41;9.47;;;1.50;;
68449;SDS011;67758;39.572;2.652;2023-03-01T01:34:08;10.10;;;1.30;;
68449;SDS011;67758;39.572;2.652;2023-03-01T01:36:37;15.48;;;1.77;;
68449;SDS011;67758;39.572;2.652;2023-03-01T01:39:03;8.73;;;1.37;;
68449;SDS011;67758;39.572;2.652;2023-03-01T01:41:29;8.35;;;1.48;;
68449;SDS011;67758;39.572;2.652;2023-03-01T01:51:45;9.63;;;1.67;;
68449;SDS011;67758;39.572;2.652;2023-03-01T01:54:20;10.13;;;1.55;;
68449;SDS011;67758;39.572;2.652;2023-03-01T01:57:01;10.55;;;1.67;;
68449;SDS011;67758;39.572;2.652;2023-03-01T01:59:32;8.35;;;1.15;;
68449;SDS011;67758;39.572;2.652;2023-03-01T02:02:00;10.30;;;1.50;;
68449;SDS011;67758;39.572;2.652;2023-03-01T02:04:29;9.03;;;1.30;;
68449;SDS011;67758;39.572;2.652;2023-03-01T02:09:56;12.73;;;1.50;;
68449;SDS011;67758;39.572;2.652;2023-03-01T02:12:23;10.10;;;2.17;;
68449;SDS011;67758;39.572;2.652;2023-03-01T02:14:51;7.20;;;1.40;;
68449;SDS011;67758;39.572;2.652;2023-03-01T02:17:17;12.77;;;1.70;;
68449;SDS011;67758;39.572;2.652;2023-03-01T02:22:24;13.65;;;1.60;;
68449;SDS011;67758;39.572;2.652;2023-03-01T02:25:00;12.73;;;1.65;;
68449;SDS011;67758;39.572;2.652;2023-03-01T02:30:23;9.63;;;1.80;;
68449;SDS011;67758;39.572;2.652;2023-03-01T02:32:51;8.73;;;1.45;;
68449;SDS011;67758;39.572;2.652;2023-03-01T02:35:21;11.07;;;1.58;;
68449;SDS011;67758;39.572;2.652;2023-03-01T02:37:47;12.30;;;2.00;;
68449;SDS011;67758;39.572;2.652;2023-03-01T02:40:15;11.63;;;1.37;;
68449;SDS011;67758;39.572;2.652;2023-03-01T02:42:51;7.97;;;1.35;;
68449;SDS011;67758;39.572;2.652;2023-03-01T02:45:20;7.65;;;1.40;;
68449;SDS011;67758;39.572;2.652;2023-03-01T02:47:46;12.35;;;2.15;;
68449;SDS011;67758;39.572;2.652;2023-03-01T02:50:15;13.27;;;2.30;;
68449;SDS011;67758;39.572;2.652;2023-03-01T02:53:11;13.60;;;1.98;;
68449;SDS011;67758;39.572;2.652;2023-03-01T02:55:57;9.95;;;1.67;;
68449;SDS011;67758;39.572;2.652;2023-03-01T02:58:27;12.50;;;1.80;;
68449;SDS011;67758;39.572;2.652;2023-03-01T03:00:53;10.18;;;1.80;;
68449;SDS011;67758;39.572;2.652;2023-03-01T03:03:20;12.97;;;2.00;;
68449;SDS011;67758;39.572;2.652;2023-03-01T03:05:46;11.32;;;2.10;;
68449;SDS011;67758;39.572;2.652;2023-03-01T03:08:12;8.25;;;1.92;;
68449;SDS011;67758;39.572;2.652;2023-03-01T03:10:40;12.17;;;2.37;;
68449;SDS011;67758;39.572;2.652;2023-03-01T03:13:11;12.43;;;2.40;;
68449;SDS011;67758;39.572;2.652;2023-03-01T03:15:39;12.70;;;2.63;;
68449;SDS011;67758;39.572;2.652;2023-03-01T03:18:08;13.13;;;3.08;;
68449;SDS011;67758;39.572;2.652;2023-03-01T03:20:35;14.10;;;2.80;;
68449;SDS011;67758;39.572;2.652;2023-03-01T03:23:03;14.17;;;2.73;;
68449;SDS011;67758;39.572;2.652;2023-03-01T03:25:29;15.35;;;2.15;;
68449;SDS011;67758;39.572;2.652;2023-03-01T03:27:58;12.68;;;2.50;;
68449;SDS011;67758;39.572;2.652;2023-03-01T03:30:28;15.98;;;2.70;;
68449;SDS011;67758;39.572;2.652;2023-03-01T03:32:56;15.57;;;2.30;;
68449;SDS011;67758;39.572;2.652;2023-03-01T03:35:33;13.67;;;2.10;;
68449;SDS011;67758;39.572;2.652;2023-03-01T03:38:05;11.30;;;1.83;;
68449;SDS011;67758;39.572;2.652;2023-03-01T03:40:41;9.77;;;2.50;;
68449;SDS011;67758;39.572;2.652;2023-03-01T03:43:10;8.18;;;1.52;;
68449;SDS011;67758;39.572;2.652;2023-03-01T03:45:37;11.55;;;1.40;;
68449;SDS011;67758;39.572;2.652;2023-03-01T03:48:03;9.07;;;1.43;;
68449;SDS011;67758;39.572;2.652;2023-03-01T03:50:31;6.53;;;1.27;;
68449;SDS011;67758;39.572;2.652;2023-03-01T03:52:57;4.35;;;0.60;;
68449;SDS011;67758;39.572;2.652;2023-03-01T03:55:25;10.02;;;1.20;;
68449;SDS011;67758;39.572;2.652;2023-03-01T03:57:56;10.73;;;0.97;;
68449;SDS011;67758;39.572;2.652;2023-03-01T04:00:27;8.30;;;1.38;;
68449;SDS011;67758;39.572;2.652;2023-03-01T04:02:53;5.47;;;0.82;;
68449;SDS011;67758;39.572;2.652;2023-03-01T04:05:21;7.85;;;0.80;;
68449;SDS011;67758;39.572;2.652;2023-03-01T04:07:47;5.10;;;0.70;;
68449;SDS011;67758;39.572;2.652;2023-03-01T04:10:14;12.20;;;1.70;;
68449;SDS011;67758;39.572;2.652;2023-03-01T04:12:41;7.45;;;1.58;;
68449;SDS011;67758;39.572;2.652;2023-03-01T04:15:08;12.00;;;0.85;;
68449;SDS011;67758;39.572;2.652;2023-03-01T04:17:47;5.93;;;0.80;;
68449;SDS011;67758;39.572;2.652;2023-03-01T04:20:13;11.00;;;1.20;;
68449;SDS011;67758;39.572;2.652;2023-03-01T04:22:42;4.45;;;0.80;;
68449;SDS011;67758;39.572;2.652;2023-03-01T04:25:12;7.75;;;0.70;;
68449;SDS011;67758;39.572;2.652;2023-03-01T04:27:39;13.40;;;1.23;;
68449;SDS011;67758;39.572;2.652;2023-03-01T04:30:07;8.15;;;0.93;;
68449;SDS011;67758;39.572;2.652;2023-03-01T04:32:33;7.83;;;1.03;;
68449;SDS011;67758;39.572;2.652;2023-03-01T04:34:59;8.35;;;1.23;;
68449;SDS011;67758;39.572;2.652;2023-03-01T04:37:26;8.40;;;1.10;;
68449;SDS011;67758;39.572;2.652;2023-03-01T04:39:52;7.88;;;1.00;;
68449;SDS011;67758;39.572;2.652;2023-03-01T04:42:17;10.93;;;1.23;;
68449;SDS011;67758;39.572;2.652;2023-03-01T04:44:44;5.88;;;0.80;;
68449;SDS011;67758;39.572;2.652;2023-03-01T04:47:10;11.05;;;1.58;;
68449;SDS011;67758;39.572;2.652;2023-03-01T04:49:36;6.57;;;0.80;;
68449;SDS011;67758;39.572;2.652;2023-03-01T04:52:02;5.35;;;0.88;;
68449;SDS011;67758;39.572;2.652;2023-03-01T04:54:29;7.63;;;1.05;;
68449;SDS011;67758;39.572;2.652;2023-03-01T04:56:55;7.45;;;0.80;;
68449;SDS011;67758;39.572;2.652;2023-03-01T04:59:22;6.67;;;0.70;;
68449;SDS011;67758;39.572;2.652;2023-03-01T05:01:48;8.65;;;1.15;;
68449;SDS011;67758;39.572;2.652;2023-03-01T05:04:14;8.57;;;0.77;;
68449;SDS011;67758;39.572;2.652;2023-03-01T05:06:40;6.80;;;0.80;;
68449;SDS011;67758;39.572;2.652;2023-03-01T05:09:06;10.40;;;0.85;;
68449;SDS011;67758;39.572;2.652;2023-03-01T05:11:32;8.47;;;0.80;;
68449;SDS011;67758;39.572;2.652;2023-03-01T05:14:04;4.80;;;0.47;;
68449;SDS011;67758;39.572;2.652;2023-03-01T05:16:31;5.45;;;0.50;;
68449;SDS011;67758;39.572;2.652;2023-03-01T05:18:57;5.70;;;0.65;;
68449;SDS011;67758;39.572;2.652;2023-03-01T05:21:23;8.65;;;0.70;;
68449;SDS011;67758;39.572;2.652;2023-03-01T05:23:50;6.50;;;0.90;;
68449;SDS011;67758;39.572;2.652;2023-03-01T05:26:17;7.47;;;1.00;;
68449;SDS011;67758;39.572;2.652;2023-03-01T05:28:46;6.07;;;0.50;;
68449;SDS011;67758;39.572;2.652;2023-03-01T05:31:12;3.58;;;0.52;;
68449;SDS011;67758;39.572;2.652;2023-03-01T05:33:41;6.73;;;0.67;;
68449;SDS011;67758;39.572;2.652;2023-03-01T05:36:10;7.30;;;0.68;;
68449;SDS011;67758;39.572;2.652;2023-03-01T05:38:36;5.70;;;0.60;;
68449;SDS011;67758;39.572;2.652;2023-03-01T05:41:02;5.22;;;0.57;;
68449;SDS011;67758;39.572;2.652;2023-03-01T05:43:30;4.17;;;0.57;;
68449;SDS011;67758;39.572;2.652;2023-03-01T05:45:59;12.32;;;0.82;;
68449;SDS011;67758;39.572;2.652;2023-03-01T05:48:25;8.13;;;1.00;;
68449;SDS011;67758;39.572;2.652;2023-03-01T05:50:51;8.20;;;1.23;;
68449;SDS011;67758;39.572;2.652;2023-03-01T05:53:17;7.03;;;1.00;;
68449;SDS011;67758;39.572;2.652;2023-03-01T05:55:46;6.25;;;0.95;;
68449;SDS011;67758;39.572;2.652;2023-03-01T05:58:13;4.40;;;0.70;;
68449;SDS011;67758;39.572;2.652;2023-03-01T06:00:41;4.88;;;0.88;;
68449;SDS011;67758;39.572;2.652;2023-03-01T06:03:09;10.20;;;0.90;;
68449;SDS011;67758;39.572;2.652;2023-03-01T06:05:36;6.20;;;0.95;;
68449;SDS011;67758;39.572;2.652;2023-03-01T06:08:01;6.90;;;0.77;;
68449;SDS011;67758;39.572;2.652;2023-03-01T06:10:28;6.82;;;0.77;;
68449;SDS011;67758;39.572;2.652;2023-03-01T06:12:54;8.23;;;0.82;;
68449;SDS011;67758;39.572;2.652;2023-03-01T06:15:21;8.98;;;1.63;;
68449;SDS011;67758;39.572;2.652;2023-03-01T06:17:47;6.85;;;0.70;;
68449;SDS011;67758;39.572;2.652;2023-03-01T06:20:14;7.50;;;1.30;;
68449;SDS011;67758;39.572;2.652;2023-03-01T06:22:42;8.50;;;0.75;;
68449;SDS011;67758;39.572;2.652;2023-03-01T06:25:09;8.00;;;0.82;;
68449;SDS011;67758;39.572;2.652;2023-03-01T06:27:35;5.80;;;0.60;;
68449;SDS011;67758;39.572;2.652;2023-03-01T06:30:00;10.87;;;1.00;;
68449;SDS011;67758;39.572;2.652;2023-03-01T06:32:26;9.90;;;0.70;;
68449;SDS011;67758;39.572;2.652;2023-03-01T06:34:52;6.60;;;1.00;;
68449;SDS011;67758;39.572;2.652;2023-03-01T06:37:18;5.97;;;0.77;;
68449;SDS011;67758;39.572;2.652;2023-03-01T06:39:43;9.85;;;1.15;;
68449;SDS011;67758;39.572;2.652;2023-03-01T06:42:09;7.20;;;0.83;;
68449;SDS011;67758;39.572;2.652;2023-03-01T06:44:35;8.53;;;1.00;;
68449;SDS011;67758;39.572;2.652;2023-03-01T06:47:01;10.10;;;0.90;;
68449;SDS011;67758;39.572;2.652;2023-03-01T06:49:28;5.43;;;0.50;;
68449;SDS011;67758;39.572;2.652;2023-03-01T06:51:54;8.82;;;1.10;;
68449;SDS011;67758;39.572;2.652;2023-03-01T06:54:19;8.77;;;0.97;;
68449;SDS011;67758;39.572;2.652;2023-03-01T06:56:47;6.80;;;1.00;;
68449;SDS011;67758;39.572;2.652;2023-03-01T06:59:18;13.13;;;1.45;;
68449;SDS011;67758;39.572;2.652;2023-03-01T07:01:47;7.22;;;0.88;;
68449;SDS011;67758;39.572;2.652;2023-03-01T07:04:12;11.60;;;1.00;;
68449;SDS011;67758;39.572;2.652;2023-03-01T07:06:39;10.32;;;1.02;;
68449;SDS011;67758;39.572;2.652;2023-03-01T07:09:04;8.87;;;0.90;;
68449;SDS011;67758;39.572;2.652;2023-03-01T07:11:33;11.45;;;1.05;;
68449;SDS011;67758;39.572;2.652;2023-03-01T07:13:58;8.82;;;0.88;;
68449;SDS011;67758;39.572;2.652;2023-03-01T07:16:25;7.70;;;0.83;;
68449;SDS011;67758;39.572;2.652;2023-03-01T07:18:50;8.95;;;1.40;;
68449;SDS011;67758;39.572;2.652;2023-03-01T07:21:16;7.13;;;1.03;;
68449;SDS011;67758;39.572;2.652;2023-03-01T07:23:42;10.23;;;1.10;;
68449;SDS011;67758;39.572;2.652;2023-03-01T07:26:08;7.60;;;0.93;;
68449;SDS011;67758;39.572;2.652;2023-03-01T07:28:33;10.30;;;1.50;;
68449;SDS011;67758;39.572;2.652;2023-03-01T07:31:04;9.90;;;1.13;;
68449;SDS011;67758;39.572;2.652;2023-03-01T07:33:32;8.93;;;1.17;;
68449;SDS011;67758;39.572;2.652;2023-03-01T07:36:01;12.87;;;1.97;;
68449;SDS011;67758;39.572;2.652;2023-03-01T07:38:28;14.38;;;1.00;;
68449;SDS011;67758;39.572;2.652;2023-03-01T07:40:58;7.85;;;1.35;;
68449;SDS011;67758;39.572;2.652;2023-03-01T07:43:26;9.40;;;1.30;;
68449;SDS011;67758;39.572;2.652;2023-03-01T07:45:52;9.95;;;1.60;;
68449;SDS011;67758;39.572;2.652;2023-03-01T07:48:21;9.83;;;1.60;;
68449;SDS011;67758;39.572;2.652;2023-03-01T07:50:47;8.85;;;1.35;;
68449;SDS011;67758;39.572;2.652;2023-03-01T07:53:14;5.95;;;0.90;;
68449;SDS011;67758;39.572;2.652;2023-03-01T07:55:39;6.97;;;1.03;;
68449;SDS011;67758;39.572;2.652;2023-03-01T07:58:05;8.87;;;1.20;;
68449;SDS011;67758;39.572;2.652;2023-03-01T08:00:31;9.52;;;1.30;;
68449;SDS011;67758;39.572;2.652;2023-03-01T08:02:58;9.63;;;1.43;;
68449;SDS011;67758;39.572;2.652;2023-03-01T08:05:27;8.73;;;1.13;;
68449;SDS011;67758;39.572;2.652;2023-03-01T08:07:53;9.93;;;1.38;;
68449;SDS011;67758;39.572;2.652;2023-03-01T08:10:19;7.78;;;1.35;;
68449;SDS011;67758;39.572;2.652;2023-03-01T08:12:45;7.73;;;1.23;;
68449;SDS011;67758;39.572;2.652;2023-03-01T08:15:10;10.50;;;1.27;;
68449;SDS011;67758;39.572;2.652;2023-03-01T08:17:43;14.30;;;1.23;;
68449;SDS011;67758;39.572;2.652;2023-03-01T08:20:36;7.50;;;0.90;;
68449;SDS011;67758;39.572;2.652;2023-03-01T08:23:19;7.95;;;0.88;;
68449;SDS011;67758;39.572;2.652;2023-03-01T08:25:46;6.18;;;0.90;;
68449;SDS011;67758;39.572;2.652;2023-03-01T08:28:12;8.10;;;0.83;;
68449;SDS011;67758;39.572;2.652;2023-03-01T08:30:38;6.07;;;0.80;;
68449;SDS011;67758;39.572;2.652;2023-03-01T08:33:03;9.75;;;0.90;;
68449;SDS011;67758;39.572;2.652;2023-03-01T08:35:29;8.47;;;0.73;;
68449;SDS011;67758;39.572;2.652;2023-03-01T08:37:54;12.95;;;1.08;;
68449;SDS011;67758;39.572;2.652;2023-03-01T08:40:20;8.23;;;0.87;;
68449;SDS011;67758;39.572;2.652;2023-03-01T08:42:46;5.00;;;0.70;;
68449;SDS011;67758;39.572;2.652;2023-03-01T08:45:11;5.45;;;0.52;;
68449;SDS011;67758;39.572;2.652;2023-03-01T08:47:39;5.95;;;1.00;;
68449;SDS011;67758;39.572;2.652;2023-03-01T08:50:04;7.37;;;0.90;;
68449;SDS011;67758;39.572;2.652;2023-03-01T08:52:32;7.30;;;1.00;;
68449;SDS011;67758;39.572;2.652;2023-03-01T08:54:58;7.60;;;1.00;;
68449;SDS011;67758;39.572;2.652;2023-03-01T08:57:23;6.73;;;0.87;;
68449;SDS011;67758;39.572;2.652;2023-03-01T08:59:49;5.05;;;0.88;;
68449;SDS011;67758;39.572;2.652;2023-03-01T09:02:16;7.10;;;0.80;;
68449;SDS011;67758;39.572;2.652;2023-03-01T09:04:43;9.57;;;1.35;;
68449;SDS011;67758;39.572;2.652;2023-03-01T09:07:09;4.28;;;0.63;;
68449;SDS011;67758;39.572;2.652;2023-03-01T09:09:35;10.77;;;1.00;;
68449;SDS011;67758;39.572;2.652;2023-03-01T09:12:01;5.75;;;0.70;;
68449;SDS011;67758;39.572;2.652;2023-03-01T09:14:27;7.68;;;1.10;;
68449;SDS011;67758;39.572;2.652;2023-03-01T09:16:53;5.33;;;0.90;;
68449;SDS011;67758;39.572;2.652;2023-03-01T09:19:19;5.63;;;1.00;;
68449;SDS011;67758;39.572;2.652;2023-03-01T09:21:47;8.27;;;1.38;;
68449;SDS011;67758;39.572;2.652;2023-03-01T09:24:20;6.90;;;0.80;;
68449;SDS011;67758;39.572;2.652;2023-03-01T09:26:47;8.33;;;1.40;;
68449;SDS011;67758;39.572;2.652;2023-03-01T09:29:13;8.52;;;1.30;;
68449;SDS011;67758;39.572;2.652;2023-03-01T09:31:39;5.72;;;1.10;;
68449;SDS011;67758;39.572;2.652;2023-03-01T09:34:05;7.70;;;1.08;;
68449;SDS011;67758;39.572;2.652;2023-03-01T09:36:32;6.93;;;0.83;;
68449;SDS011;67758;39.572;2.652;2023-03-01T09:38:58;7.22;;;1.30;;
68449;SDS011;67758;39.572;2.652;2023-03-01T09:44:33;6.88;;;1.08;;
68449;SDS011;67758;39.572;2.652;2023-03-01T09:47:28;7.15;;;0.90;;
68449;SDS011;67758;39.572;2.652;2023-03-01T09:52:53;5.22;;;0.90;;
68449;SDS011;67758;39.572;2.652;2023-03-01T09:55:27;6.28;;;0.95;;
68449;SDS011;67758;39.572;2.652;2023-03-01T09:58:00;6.18;;;1.02;;
68449;SDS011;67758;39.572;2.652;2023-03-01T10:03:16;6.97;;;0.90;;
68449;SDS011;67758;39.572;2.652;2023-03-01T10:06:22;8.02;;;0.65;;
68449;SDS011;67758;39.572;2.652;2023-03-01T10:08:43;6.88;;;1.02;;
68449;SDS011;67758;39.572;2.652;2023-03-01T10:11:24;11.10;;;0.95;;
68449;SDS011;67758;39.572;2.652;2023-03-01T10:14:05;6.88;;;1.30;;
68449;SDS011;67758;39.572;2.652;2023-03-01T10:19:24;6.25;;;1.05;;
68449;SDS011;67758;39.572;2.652;2023-03-01T10:22:24;6.28;;;1.10;;
68449;SDS011;67758;39.572;2.652;2023-03-01T10:24:47;6.47;;;1.52;;
68449;SDS011;67758;39.572;2.652;2023-03-01T10:30:01;6.33;;;0.87;;
68449;SDS011;67758;39.572;2.652;2023-03-01T10:32:47;6.80;;;1.27;;
68449;SDS011;67758;39.572;2.652;2023-03-01T10:40:49;9.50;;;1.10;;
68449;SDS011;67758;39.572;2.652;2023-03-01T10:43:19;8.52;;;1.10;;
68449;SDS011;67758;39.572;2.652;2023-03-01T10:45:46;12.05;;;1.70;;
68449;SDS011;67758;39.572;2.652;2023-03-01T10:48:16;7.15;;;1.27;;
68449;SDS011;67758;39.572;2.652;2023-03-01T10:53:37;7.30;;;1.08;;
68449;SDS011;67758;39.572;2.652;2023-03-01T10:56:09;6.47;;;0.90;;
68449;SDS011;67758;39.572;2.652;2023-03-01T10:58:39;7.50;;;1.55;;
68449;SDS011;67758;39.572;2.652;2023-03-01T11:03:41;6.47;;;1.23;;
68449;SDS011;67758;39.572;2.652;2023-03-01T11:06:20;8.55;;;1.75;;
68449;SDS011;67758;39.572;2.652;2023-03-01T11:08:48;6.10;;;1.17;;
68449;SDS011;67758;39.572;2.652;2023-03-01T11:11:18;6.13;;;1.43;;
68449;SDS011;67758;39.572;2.652;2023-03-01T11:14:06;8.73;;;1.80;;
68449;SDS011;67758;39.572;2.652;2023-03-01T11:16:39;5.80;;;1.52;;
68449;SDS011;67758;39.572;2.652;2023-03-01T11:21:39;9.77;;;1.52;;
68449;SDS011;67758;39.572;2.652;2023-03-01T11:24:15;6.90;;;1.70;;
68449;SDS011;67758;39.572;2.652;2023-03-01T11:26:44;8.18;;;2.45;;
68449;SDS011;67758;39.572;2.652;2023-03-01T11:29:18;8.05;;;1.90;;
68449;SDS011;67758;39.572;2.652;2023-03-01T11:31:52;8.88;;;1.90;;
68449;SDS011;67758;39.572;2.652;2023-03-01T11:34:24;7.35;;;1.92;;
68449;SDS011;67758;39.572;2.652;2023-03-01T11:37:07;8.10;;;2.40;;
68449;SDS011;67758;39.572;2.652;2023-03-01T11:39:58;7.72;;;1.50;;
68449;SDS011;67758;39.572;2.652;2023-03-01T11:42:45;6.93;;;1.38;;
68449;SDS011;67758;39.572;2.652;2023-03-01T11:45:15;8.23;;;2.10;;
68449;SDS011;67758;39.572;2.652;2023-03-01T11:50:42;5.97;;;1.52;;
68449;SDS011;67758;39.572;2.652;2023-03-01T12:00:50;7.50;;;2.03;;
68449;SDS011;67758;39.572;2.652;2023-03-01T12:24:35;6.28;;;2.45;;
68449;SDS011;67758;39.572;2.652;2023-03-01T12:27:31;7.17;;;1.43;;
68449;SDS011;67758;39.572;2.652;2023-03-01T12:36:10;6.53;;;1.70;;
68449;SDS011;67758;39.572;2.652;2023-03-01T12:38:41;5.22;;;1.90;;
68449;SDS011;67758;39.572;2.652;2023-03-01T12:48:45;6.63;;;1.37;;
68449;SDS011;67758;39.572;2.652;2023-03-01T12:51:19;5.47;;;1.70;;
68449;SDS011;67758;39.572;2.652;2023-03-01T12:53:49;7.60;;;2.35;;
68449;SDS011;67758;39.572;2.652;2023-03-01T12:56:18;8.18;;;1.70;;
68449;SDS011;67758;39.572;2.652;2023-03-01T13:05:00;6.70;;;1.35;;
68449;SDS011;67758;39.572;2.652;2023-03-01T13:07:36;5.40;;;1.30;;
68449;SDS011;67758;39.572;2.652;2023-03-01T13:17:47;8.65;;;1.40;;
68449;SDS011;67758;39.572;2.652;2023-03-01T13:20:21;5.60;;;1.48;;
68449;SDS011;67758;39.572;2.652;2023-03-01T13:23:53;6.30;;;1.95;;
68449;SDS011;67758;39.572;2.652;2023-03-01T13:30:58;6.05;;;1.27;;
68449;SDS011;67758;39.572;2.652;2023-03-01T13:35:54;7.32;;;1.20;;
68449;SDS011;67758;39.572;2.652;2023-03-01T13:46:58;7.30;;;1.50;;
68449;SDS011;67758;39.572;2.652;2023-03-01T13:49:41;4.90;;;1.15;;
68449;SDS011;67758;39.572;2.652;2023-03-01T13:52:34;3.83;;;1.08;;
68449;SDS011;67758;39.572;2.652;2023-03-01T13:55:25;5.23;;;1.10;;
68449;SDS011;67758;39.572;2.652;2023-03-01T13:57:59;7.93;;;1.23;;
68449;SDS011;67758;39.572;2.652;2023-03-01T14:03:11;6.32;;;1.35;;
68449;SDS011;67758;39.572;2.652;2023-03-01T14:08:25;5.67;;;1.00;;
68449;SDS011;67758;39.572;2.652;2023-03-01T14:16:46;5.55;;;0.90;;
68449;SDS011;67758;39.572;2.652;2023-03-01T14:19:24;6.28;;;1.35;;
68449;SDS011;67758;39.572;2.652;2023-03-01T14:24:46;4.47;;;0.95;;
68449;SDS011;67758;39.572;2.652;2023-03-01T14:27:17;4.13;;;1.13;;
68449;SDS011;67758;39.572;2.652;2023-03-01T14:29:53;5.38;;;1.10;;
68449;SDS011;67758;39.572;2.652;2023-03-01T14:32:25;5.57;;;1.08;;
68449;SDS011;67758;39.572;2.652;2023-03-01T14:34:55;6.10;;;1.10;;
68449;SDS011;67758;39.572;2.652;2023-03-01T14:39:59;6.05;;;0.88;;
68449;SDS011;67758;39.572;2.652;2023-03-01T14:42:28;4.30;;;0.93;;
68449;SDS011;67758;39.572;2.652;2023-03-01T14:44:57;6.90;;;1.75;;
68449;SDS011;67758;39.572;2.652;2023-03-01T14:49:53;6.38;;;1.90;;
68449;SDS011;67758;39.572;2.652;2023-03-01T14:52:22;5.45;;;1.05;;
68449;SDS011;67758;39.572;2.652;2023-03-01T14:54:55;4.93;;;1.00;;
68449;SDS011;67758;39.572;2.652;2023-03-01T14:57:22;4.43;;;0.90;;
68449;SDS011;67758;39.572;2.652;2023-03-01T14:59:50;5.03;;;0.82;;
68449;SDS011;67758;39.572;2.652;2023-03-01T15:02:20;4.90;;;0.80;;
68449;SDS011;67758;39.572;2.652;2023-03-01T15:04:49;6.15;;;0.77;;
68449;SDS011;67758;39.572;2.652;2023-03-01T15:07:31;5.23;;;0.93;;
68449;SDS011;67758;39.572;2.652;2023-03-01T15:10:06;5.05;;;1.27;;
68449;SDS011;67758;39.572;2.652;2023-03-01T15:12:45;4.68;;;0.80;;
68449;SDS011;67758;39.572;2.652;2023-03-01T15:15:22;4.67;;;1.30;;
68449;SDS011;67758;39.572;2.652;2023-03-01T15:21:08;5.03;;;0.98;;
68449;SDS011;67758;39.572;2.652;2023-03-01T15:23:49;3.88;;;0.73;;
68449;SDS011;67758;39.572;2.652;2023-03-01T15:26:23;5.28;;;0.80;;
68449;SDS011;67758;39.572;2.652;2023-03-01T15:28:50;4.80;;;0.80;;
68449;SDS011;67758;39.572;2.652;2023-03-01T15:31:21;5.87;;;0.90;;
68449;SDS011;67758;39.572;2.652;2023-03-01T15:33:48;4.63;;;0.70;;
68449;SDS011;67758;39.572;2.652;2023-03-01T15:39:02;6.27;;;1.07;;
68449;SDS011;67758;39.572;2.652;2023-03-01T15:41:30;5.00;;;0.80;;
68449;SDS011;67758;39.572;2.652;2023-03-01T15:44:25;5.05;;;0.90;;
68449;SDS011;67758;39.572;2.652;2023-03-01T15:46:56;3.90;;;0.65;;
68449;SDS011;67758;39.572;2.652;2023-03-01T15:51:49;6.67;;;0.90;;
68449;SDS011;67758;39.572;2.652;2023-03-01T15:54:19;6.68;;;0.90;;
68449;SDS011;67758;39.572;2.652;2023-03-01T15:56:47;5.63;;;0.90;;
68449;SDS011;67758;39.572;2.652;2023-03-01T15:59:13;5.30;;;0.80;;
68449;SDS011;67758;39.572;2.652;2023-03-01T16:01:43;3.45;;;0.70;;
68449;SDS011;67758;39.572;2.652;2023-03-01T16:04:10;6.25;;;0.60;;
68449;SDS011;67758;39.572;2.652;2023-03-01T16:06:38;6.63;;;0.80;;
68449;SDS011;67758;39.572;2.652;2023-03-01T16:09:04;5.93;;;1.10;;
68449;SDS011;67758;39.572;2.652;2023-03-01T16:11:30;4.87;;;0.83;;
68449;SDS011;67758;39.572;2.652;2023-03-01T16:13:57;4.05;;;1.02;;
68449;SDS011;67758;39.572;2.652;2023-03-01T16:16:23;5.60;;;0.90;;
68449;SDS011;67758;39.572;2.652;2023-03-01T16:18:49;6.43;;;0.90;;
68449;SDS011;67758;39.572;2.652;2023-03-01T16:21:16;6.95;;;1.00;;
68449;SDS011;67758;39.572;2.652;2023-03-01T16:23:47;5.82;;;0.90;;
68449;SDS011;67758;39.572;2.652;2023-03-01T16:26:13;10.15;;;1.25;;
68449;SDS011;67758;39.572;2.652;2023-03-01T16:28:40;6.47;;;1.20;;
68449;SDS011;67758;39.572;2.652;2023-03-01T16:31:06;5.00;;;0.85;;
68449;SDS011;67758;39.572;2.652;2023-03-01T16:33:33;6.65;;;1.13;;
68449;SDS011;67758;39.572;2.652;2023-03-01T16:35:59;5.03;;;0.90;;
68449;SDS011;67758;39.572;2.652;2023-03-01T16:38:35;6.07;;;0.90;;
68449;SDS011;67758;39.572;2.652;2023-03-01T16:41:00;7.25;;;1.10;;
68449;SDS011;67758;39.572;2.652;2023-03-01T16:43:26;5.63;;;1.00;;
68449;SDS011;67758;39.572;2.652;2023-03-01T16:45:52;4.78;;;0.98;;
68449;SDS011;67758;39.572;2.652;2023-03-01T16:48:17;3.70;;;0.80;;
68449;SDS011;67758;39.572;2.652;2023-03-01T16:50:43;4.63;;;0.97;;
68449;SDS011;67758;39.572;2.652;2023-03-01T16:53:09;2.63;;;0.50;;
68449;SDS011;67758;39.572;2.652;2023-03-01T16:55:35;5.40;;;0.80;;
68449;SDS011;67758;39.572;2.652;2023-03-01T16:58:00;3.97;;;0.70;;
68449;SDS011;67758;39.572;2.652;2023-03-01T17:00:26;6.63;;;0.82;;
68449;SDS011;67758;39.572;2.652;2023-03-01T17:02:53;7.00;;;1.00;;
68449;SDS011;67758;39.572;2.652;2023-03-01T17:05:18;4.85;;;0.98;;
68449;SDS011;67758;39.572;2.652;2023-03-01T17:07:46;4.32;;;0.90;;
68449;SDS011;67758;39.572;2.652;2023-03-01T17:10:11;5.17;;;1.03;;
68449;SDS011;67758;39.572;2.652;2023-03-01T17:12:37;4.77;;;0.70;;
68449;SDS011;67758;39.572;2.652;2023-03-01T17:15:04;4.47;;;0.70;;
68449;SDS011;67758;39.572;2.652;2023-03-01T17:17:31;4.68;;;0.80;;
68449;SDS011;67758;39.572;2.652;2023-03-01T17:19:57;7.88;;;1.00;;
68449;SDS011;67758;39.572;2.652;2023-03-01T17:22:22;6.20;;;0.80;;